Time;durP1;ratioP1;P1;durP2;ratioP2;P2;SDS_P1;SDS_P2;PMS_P1;PMS_P2;Temp;Humidity;BMP_temperature;BMP_pressure;BME280_temperature;BME280_humidity;BME280_pressure;Samples;Min_cycle;Max_cycle;Signal;HPM_P1;HPM_P2
2021/09/27 00:02:04;;;;;;;10.40;9.50;;;15.60;99.90;;;;;;4987419;28;20583;-82
2021/09/27 00:04:30;;;;;;;11.40;10.40;;;15.60;99.90;;;;;;4984964;28;20268;-81
2021/09/27 00:06:56;;;;;;;11.93;10.83;;;15.60;99.90;;;;;;4977537;28;20207;-81
2021/09/27 00:09:22;;;;;;;11.27;10.27;;;15.60;99.90;;;;;;4970661;28;20216;-81
2021/09/27 00:11:47;;;;;;;9.27;8.37;;;15.60;99.90;;;;;;4977332;28;20188;-81
2021/09/27 00:14:13;;;;;;;13.50;9.13;;;15.50;99.90;;;;;;4976873;28;20200;-81
2021/09/27 00:16:39;;;;;;;10.07;9.07;;;15.50;99.90;;;;;;4977185;28;20535;-82
2021/09/27 00:19:05;;;;;;;14.07;9.37;;;15.50;99.90;;;;;;4976974;28;20181;-81
2021/09/27 00:21:34;;;;;;;10.57;9.67;;;15.40;99.90;;;;;;4977173;28;20207;-81
2021/09/27 00:24:01;;;;;;;10.80;9.87;;;15.30;99.90;;;;;;4976900;28;20217;-81
2021/09/27 00:26:28;;;;;;;9.73;8.80;;;15.40;99.90;;;;;;4977245;28;20260;-81
2021/09/27 00:28:54;;;;;;;10.43;9.53;;;15.30;99.90;;;;;;4976749;28;20173;-81
2021/09/27 00:31:20;;;;;;;9.67;8.83;;;15.40;99.90;;;;;;4975248;28;20181;-81
2021/09/27 00:33:47;;;;;;;9.93;9.03;;;15.40;99.90;;;;;;4974305;28;20205;-81
2021/09/27 00:36:14;;;;;;;12.43;10.30;;;15.40;99.90;;;;;;4975907;28;20200;-81
2021/09/27 00:38:40;;;;;;;10.20;9.20;;;15.40;99.90;;;;;;4974599;28;20190;-81
2021/09/27 00:41:10;;;;;;;10.63;9.63;;;15.40;99.90;;;;;;4974713;28;20196;-81
2021/09/27 00:43:38;;;;;;;10.50;9.23;;;15.40;99.90;;;;;;4974413;28;20197;-81
2021/09/27 00:46:09;;;;;;;10.83;9.83;;;15.50;99.90;;;;;;4974402;28;20181;-81
2021/09/27 00:48:35;;;;;;;10.83;9.50;;;15.40;99.90;;;;;;4975434;28;20176;-81
2021/09/27 00:51:09;;;;;;;11.60;8.80;;;15.40;99.90;;;;;;4974650;28;20239;-81
2021/09/27 00:53:41;;;;;;;10.33;9.30;;;15.30;99.90;;;;;;4975274;28;20212;-81
2021/09/27 00:56:09;;;;;;;10.07;9.07;;;15.40;99.90;;;;;;4975368;28;20177;-81
2021/09/27 00:58:36;;;;;;;10.20;8.90;;;15.40;99.90;;;;;;4975565;28;20181;-81
2021/09/27 01:01:03;;;;;;;9.50;8.50;;;15.30;99.90;;;;;;4974152;28;20239;-81
2021/09/27 01:03:29;;;;;;;9.50;8.53;;;15.30;99.90;;;;;;4976406;28;21314;-81
2021/09/27 01:06:25;;;;;;;11.00;8.50;;;15.30;99.90;;;;;;4976473;28;20205;-82
2021/09/27 01:09:10;;;;;;;10.17;9.27;;;;;;;;;;4977042;28;20188;-81
2021/09/27 01:11:57;;;;;;;9.70;8.80;;;14.80;99.90;;;;;;4977264;28;20264;-81
2021/09/27 01:14:35;;;;;;;9.80;8.80;;;15.20;99.90;;;;;;4975780;28;20239;-82
2021/09/27 01:17:07;;;;;;;10.83;9.73;;;15.10;99.90;;;;;;4975922;28;20192;-82
2021/09/27 01:20:00;;;;;;;8.90;8.20;;;15.10;99.90;;;;;;4977590;28;20195;-82
2021/09/27 01:23:04;;;;;;;11.83;8.97;;;15.10;99.90;;;;;;4977630;28;20187;-82
2021/09/27 01:25:33;;;;;;;11.73;9.43;;;15.20;99.90;;;;;;4976870;28;20204;-82
2021/09/27 01:28:52;;;;;;;9.70;8.83;;;15.10;99.90;;;;;;4977364;28;20187;-82
2021/09/27 01:31:54;;;;;;;10.07;9.07;;;15.10;99.90;;;;;;4936947;29;20182;-82
2021/09/27 01:34:31;;;;;;;10.93;9.00;;;15.10;99.90;;;;;;4977371;28;20206;-82
2021/09/27 01:37:15;;;;;;;10.60;9.60;;;15.20;99.90;;;;;;4976210;28;20185;-81
2021/09/27 01:39:57;;;;;;;10.57;9.67;;;15.20;99.90;;;;;;4976671;28;20562;-81
2021/09/27 01:42:40;;;;;;;10.77;9.77;;;15.20;99.90;;;;;;4976877;28;20212;-82
2021/09/27 01:45:32;;;;;;;11.17;10.10;;;15.20;99.90;;;;;;4967887;28;20215;-82
2021/09/27 01:48:24;;;;;;;9.07;8.20;;;15.20;99.90;;;;;;4976848;28;20346;-82
2021/09/27 01:50:58;;;;;;;10.10;9.17;;;15.20;99.90;;;;;;4972840;28;20200;-82
2021/09/27 01:53:34;;;;;;;10.43;9.33;;;15.20;99.90;;;;;;4979694;28;20188;-82
2021/09/27 01:56:25;;;;;;;8.87;8.07;;;15.10;99.90;;;;;;4978757;28;20189;-82
2021/09/27 01:59:16;;;;;;;10.57;9.37;;;15.10;99.90;;;;;;4979672;28;20188;-82
2021/09/27 02:02:13;;;;;;;11.10;8.57;;;15.10;99.90;;;;;;4969121;28;20215;-82
2021/09/27 02:04:50;;;;;;;9.47;8.57;;;15.00;99.90;;;;;;4974418;28;20291;-83
2021/09/27 02:07:18;;;;;;;8.73;7.80;;;15.00;99.90;;;;;;4983960;28;20188;-81
2021/09/27 02:09:47;;;;;;;9.73;8.77;;;14.90;99.90;;;;;;4961401;28;20614;-82
2021/09/27 02:12:20;;;;;;;8.57;7.87;;;14.90;99.90;;;;;;4977333;28;20267;-82
2021/09/27 02:14:52;;;;;;;9.63;8.83;;;14.90;99.90;;;;;;4977028;28;20203;-81
2021/09/27 02:17:28;;;;;;;9.33;8.53;;;14.90;99.90;;;;;;4977495;28;20172;-82
2021/09/27 02:20:06;;;;;;;9.37;8.53;;;14.90;99.90;;;;;;4966773;28;20212;-82
2021/09/27 02:22:34;;;;;;;10.17;9.17;;;14.90;99.90;;;;;;4962132;28;20185;-82
2021/09/27 02:25:16;;;;;;;9.20;8.30;;;14.90;99.90;;;;;;4959447;28;20748;-82
2021/09/27 02:27:42;;;;;;;9.80;8.80;;;14.90;99.90;;;;;;4958748;28;20527;-81
2021/09/27 02:30:11;;;;;;;11.17;9.87;;;14.80;99.90;;;;;;4960596;28;20181;-82
2021/09/27 02:32:43;;;;;;;10.87;9.80;;;14.80;99.90;;;;;;4962208;28;20600;-81
2021/09/27 02:35:18;;;;;;;12.60;11.30;;;14.80;99.90;;;;;;4975703;28;20688;-82
2021/09/27 02:37:58;;;;;;;12.10;10.80;;;14.80;99.90;;;;;;4965048;28;20181;-80
2021/09/27 02:40:27;;;;;;;12.00;10.80;;;14.80;99.90;;;;;;4967749;28;20267;-82
2021/09/27 02:42:57;;;;;;;14.13;11.93;;;14.80;99.90;;;;;;4962028;28;20670;-81
2021/09/27 02:45:24;;;;;;;11.70;10.60;;;14.80;99.90;;;;;;4960511;28;20200;-82
2021/09/27 02:47:57;;;;;;;13.47;10.93;;;14.80;99.90;;;;;;4960354;28;20197;-82
2021/09/27 02:50:27;;;;;;;12.03;10.80;;;14.80;99.90;;;;;;4970812;28;20187;-78
2021/09/27 02:52:55;;;;;;;12.77;10.37;;;14.80;99.90;;;;;;4974353;28;20188;-79
2021/09/27 02:55:24;;;;;;;11.03;10.13;;;14.80;99.90;;;;;;4981795;28;20696;-80
2021/09/27 02:57:50;;;;;;;11.00;10.07;;;14.70;99.90;;;;;;4984206;28;20192;-79
2021/09/27 03:00:53;;;;;;;11.70;10.13;;;14.70;99.90;;;;;;4984202;28;20232;-79
2021/09/27 03:03:26;;;;;;;11.53;9.93;;;14.70;99.90;;;;;;4963423;28;20195;-79
2021/09/27 03:06:12;;;;;;;11.43;10.43;;;14.70;99.90;;;;;;4985480;28;20587;-79
2021/09/27 03:09:03;;;;;;;11.47;10.37;;;14.60;99.90;;;;;;4984666;28;20177;-79
2021/09/27 03:12:01;;;;;;;11.17;10.17;;;14.60;99.90;;;;;;4983232;28;20189;-78
2021/09/27 03:15:22;;;;;;;12.37;11.27;;;14.50;99.90;;;;;;4983616;28;20239;-78
2021/09/27 03:18:10;;;;;;;12.23;10.70;;;14.50;99.90;;;;;;4970345;28;20197;-78
2021/09/27 03:20:59;;;;;;;12.00;10.80;;;14.50;99.90;;;;;;4982791;28;20291;-79
2021/09/27 03:23:35;;;;;;;11.93;10.73;;;14.50;99.90;;;;;;4981813;28;20184;-79
2021/09/27 03:26:12;;;;;;;13.20;11.07;;;14.50;99.90;;;;;;4981599;28;20183;-79
2021/09/27 03:28:41;;;;;;;11.17;10.10;;;14.50;99.90;;;;;;4981709;28;20183;-79
2021/09/27 03:31:18;;;;;;;10.07;9.13;;;14.50;99.90;;;;;;4983037;28;20211;-78
2021/09/27 03:33:55;;;;;;;12.17;10.97;;;14.60;99.90;;;;;;4982563;28;20215;-79
2021/09/27 03:36:59;;;;;;;12.30;11.20;;;14.60;99.90;;;;;;4980316;28;20279;-79
2021/09/27 03:39:34;;;;;;;13.23;11.87;;;14.60;99.90;;;;;;4981919;28;20188;-79
2021/09/27 03:42:38;;;;;;;13.30;12.00;;;14.60;99.90;;;;;;4981426;28;20671;-79
2021/09/27 03:45:34;;;;;;;15.80;12.97;;;14.60;99.90;;;;;;4982556;28;20207;-79
2021/09/27 03:48:16;;;;;;;15.27;13.13;;;14.60;99.90;;;;;;4979789;28;20200;-79
2021/09/27 03:50:54;;;;;;;20.03;14.77;;;14.40;99.90;;;;;;4980857;28;20239;-79
2021/09/27 03:53:46;;;;;;;22.23;15.43;;;14.40;99.90;;;;;;4982724;28;20181;-79
2021/09/27 03:56:20;;;;;;;24.20;15.57;;;14.40;99.90;;;;;;4954682;28;20271;-77
2021/09/27 03:59:12;;;;;;;22.67;15.10;;;14.50;99.90;;;;;;4981006;28;20184;-78
2021/09/27 04:01:50;;;;;;;23.07;16.20;;;14.60;99.90;;;;;;4952390;28;20231;-79
2021/09/27 04:04:30;;;;;;;22.63;15.10;;;14.60;99.90;;;;;;4980185;28;20267;-79
2021/09/27 04:07:14;;;;;;;21.80;15.73;;;14.60;99.90;;;;;;4971216;28;20239;-78
2021/09/27 04:10:14;;;;;;;29.40;16.13;;;14.50;99.90;;;;;;4980129;28;20267;-79
2021/09/27 04:12:58;;;;;;;21.77;14.97;;;14.60;99.90;;;;;;4979023;28;20258;-78
2021/09/27 04:15:54;;;;;;;23.77;15.83;;;14.40;99.90;;;;;;4981088;28;20204;-79
2021/09/27 04:18:41;;;;;;;21.53;15.17;;;14.50;99.90;;;;;;4971103;28;20195;-79
2021/09/27 04:21:19;;;;;;;21.10;15.63;;;14.40;99.90;;;;;;4963650;28;20713;-80
2021/09/27 04:24:23;;;;;;;25.70;18.40;;;14.40;99.90;;;;;;4974237;28;20199;-79
2021/09/27 04:27:11;;;;;;;27.03;17.53;;;14.30;99.90;;;;;;4972782;28;20223;-79
2021/09/27 04:29:49;;;;;;;28.67;18.23;;;14.50;99.90;;;;;;4979703;28;20176;-78
2021/09/27 04:32:35;;;;;;;25.37;17.40;;;14.50;99.90;;;;;;4978905;28;20243;-79
2021/09/27 04:35:19;;;;;;;30.67;18.37;;;14.50;99.90;;;;;;4971897;28;20207;-78
2021/09/27 04:37:46;;;;;;;28.87;17.80;;;14.50;99.90;;;;;;4975431;28;20176;-79
2021/09/27 04:40:14;;;;;;;29.27;18.37;;;14.50;99.90;;;;;;4975657;28;20216;-79
2021/09/27 04:42:56;;;;;;;26.03;18.53;;;14.50;99.90;;;;;;4975892;28;20180;-79
2021/09/27 04:45:50;;;;;;;30.97;19.63;;;14.50;99.90;;;;;;4982410;28;20244;-79
2021/09/27 04:48:16;;;;;;;30.73;19.13;;;14.50;99.90;;;;;;4971770;28;20264;-79
2021/09/27 04:51:13;;;;;;;25.97;18.30;;;14.60;99.90;;;;;;4968206;28;20644;-79
2021/09/27 04:53:55;;;;;;;30.57;19.30;;;14.50;99.90;;;;;;4968521;28;20223;-80
2021/09/27 04:56:32;;;;;;;29.63;19.07;;;14.50;99.90;;;;;;4979809;28;20187;-79
2021/09/27 04:59:00;;;;;;;26.20;19.13;;;14.40;99.90;;;;;;4982590;28;20194;-80
2021/09/27 05:01:45;;;;;;;26.60;19.20;;;14.50;99.90;;;;;;4983865;28;20239;-79
2021/09/27 05:04:22;;;;;;;24.43;17.97;;;14.50;99.90;;;;;;4986173;28;20219;-80
2021/09/27 05:07:00;;;;;;;27.57;17.90;;;14.60;99.90;;;;;;4984958;28;20655;-79
2021/09/27 05:09:44;;;;;;;87.93;21.03;;;14.50;99.90;;;;;;4984741;28;20552;-79
2021/09/27 05:12:35;;;;;;;92.87;20.63;;;14.60;99.90;;;;;;4986468;28;20243;-79
2021/09/27 05:15:30;;;;;;;92.63;19.10;;;14.60;99.90;;;;;;4983159;28;20580;-79
2021/09/27 05:18:31;;;;;;;109.37;19.67;;;14.50;99.90;;;;;;4984911;28;20184;-79
2021/09/27 05:21:23;;;;;;;98.13;19.70;;;14.50;99.90;;;;;;4979277;28;20307;-78
2021/09/27 05:24:06;;;;;;;49.73;19.07;;;14.50;99.90;;;;;;4982227;28;20659;-79
2021/09/27 05:27:11;;;;;;;248.10;21.20;;;14.50;99.90;;;;;;4983875;28;20198;-79
2021/09/27 05:29:43;;;;;;;93.67;20.90;;;14.40;99.90;;;;;;4971500;28;20172;-79
2021/09/27 05:32:18;;;;;;;26.83;18.27;;;14.40;99.90;;;;;;4980655;28;20184;-79
2021/09/27 05:34:46;;;;;;;32.10;18.00;;;14.40;99.90;;;;;;4979286;28;20192;-79
2021/09/27 05:37:42;;;;;;;33.47;19.27;;;14.50;99.90;;;;;;4983253;28;20208;-79
2021/09/27 05:40:20;;;;;;;27.60;19.83;;;14.50;99.90;;;;;;4972481;28;20204;-78
2021/09/27 05:43:04;;;;;;;26.07;19.07;;;14.40;99.90;;;;;;4976752;28;20195;-79
2021/09/27 05:45:41;;;;;;;23.70;19.13;;;14.40;99.90;;;;;;4975645;28;20235;-78
2021/09/27 05:48:36;;;;;;;30.80;20.63;;;14.50;99.90;;;;;;4974853;28;20187;-78
2021/09/27 05:51:13;;;;;;;30.80;21.70;;;14.50;99.90;;;;;;4978726;28;20957;-78
2021/09/27 05:54:18;;;;;;;30.20;21.20;;;14.60;99.90;;;;;;4976937;28;20211;-78
2021/09/27 05:56:52;;;;;;;33.50;21.67;;;14.60;99.90;;;;;;4947229;28;20211;-78
2021/09/27 05:59:55;;;;;;;37.53;22.53;;;14.60;99.90;;;;;;4979628;28;20667;-78
2021/09/27 06:03:01;;;;;;;40.97;24.23;;;14.70;99.90;;;;;;4945478;28;20196;-78
2021/09/27 06:05:42;;;;;;;34.93;22.03;;;14.60;99.90;;;;;;4965698;28;20750;-78
2021/09/27 06:08:31;;;;;;;36.47;23.50;;;14.60;99.90;;;;;;4976193;28;20172;-78
2021/09/27 06:11:00;;;;;;;38.43;23.97;;;14.60;99.90;;;;;;4975806;28;20195;-78
2021/09/27 06:13:40;;;;;;;34.47;21.97;;;14.60;99.90;;;;;;4973348;28;20263;-78
2021/09/27 06:16:30;;;;;;;35.00;23.37;;;14.60;99.90;;;;;;4972904;28;20547;-78
2021/09/27 06:19:20;;;;;;;35.53;22.80;;;14.60;99.90;;;;;;4970806;28;20180;-78
2021/09/27 06:22:06;;;;;;;38.70;22.27;;;14.60;99.90;;;;;;4975432;28;20219;-77
2021/09/27 06:24:53;;;;;;;34.73;22.33;;;14.60;99.90;;;;;;4975193;28;20204;-78
2021/09/27 06:27:47;;;;;;;33.03;21.80;;;14.60;99.90;;;;;;4977438;28;20195;-78
2021/09/27 06:30:28;;;;;;;51.33;25.00;;;14.70;99.90;;;;;;4976403;28;20189;-77
2021/09/27 06:33:31;;;;;;;45.10;24.10;;;14.80;99.90;;;;;;4979540;28;20184;-78
2021/09/27 06:35:59;;;;;;;38.17;24.33;;;14.80;99.90;;;;;;4978493;28;20263;-77
2021/09/27 06:38:33;;;;;;;64.00;22.23;;;14.80;99.90;;;;;;4978586;28;20236;-78
2021/09/27 06:40:59;;;;;;;76.40;23.43;;;14.90;99.90;;;;;;4980084;28;20196;-78
2021/09/27 06:43:26;;;;;;;59.07;23.73;;;14.80;99.90;;;;;;4978330;28;20203;-77
2021/09/27 06:45:53;;;;;;;39.43;23.60;;;14.80;99.90;;;;;;4993863;28;20303;-78
2021/09/27 06:48:20;;;;;;;45.33;24.10;;;14.80;99.90;;;;;;4976874;28;20173;-77
2021/09/27 06:50:46;;;;;;;34.00;22.73;;;14.80;99.90;;;;;;4979871;28;20180;-78
2021/09/27 06:53:12;;;;;;;32.83;22.13;;;14.80;99.90;;;;;;4979700;28;20188;-78
2021/09/27 06:55:38;;;;;;;42.23;23.40;;;14.70;99.90;;;;;;4976970;28;20188;-78
2021/09/27 06:58:05;;;;;;;35.43;22.93;;;14.80;99.90;;;;;;4976749;28;20213;-77
2021/09/27 07:00:31;;;;;;;45.03;24.27;;;14.80;99.90;;;;;;4974612;28;20684;-78
2021/09/27 07:02:57;;;;;;;39.83;24.93;;;14.80;99.90;;;;;;4960934;28;20633;-77
2021/09/27 07:05:24;;;;;;;37.10;23.13;;;14.80;99.90;;;;;;4964106;28;20239;-79
2021/09/27 07:07:50;;;;;;;36.23;22.53;;;14.90;99.90;;;;;;4969143;28;20208;-79
2021/09/27 07:10:19;;;;;;;31.27;21.07;;;14.90;99.90;;;;;;4980639;28;20185;-79
2021/09/27 07:12:44;;;;;;;36.20;23.77;;;14.90;99.90;;;;;;5036073;23;20230;-79
2021/09/27 07:15:11;;;;;;;48.93;27.77;;;14.80;99.90;;;;;;5021156;28;20639;-80
2021/09/27 07:17:38;;;;;;;45.93;27.17;;;14.80;99.90;;;;;;5002593;28;20172;-79
2021/09/27 07:20:10;;;;;;;39.13;25.90;;;14.70;99.90;;;;;;5002841;28;20168;-80
2021/09/27 07:22:35;;;;;;;46.10;28.73;;;14.70;99.90;;;;;;4994933;28;20203;-80
2021/09/27 07:25:02;;;;;;;39.17;23.63;;;14.80;99.90;;;;;;5003313;28;20172;-78
2021/09/27 07:27:28;;;;;;;35.97;23.80;;;14.80;99.90;;;;;;4995551;28;20183;-80
2021/09/27 07:29:53;;;;;;;33.73;22.43;;;14.90;99.90;;;;;;4993698;28;20176;-80
2021/09/27 07:32:19;;;;;;;31.33;22.17;;;15.00;99.90;;;;;;5001246;28;20191;-80
2021/09/27 07:34:45;;;;;;;28.87;20.23;;;15.00;99.90;;;;;;5002817;28;20175;-80
2021/09/27 07:37:11;;;;;;;31.60;21.77;;;15.00;99.90;;;;;;5003510;28;20231;-80
2021/09/27 07:39:39;;;;;;;31.30;21.03;;;15.10;99.90;;;;;;5002294;28;20176;-80
2021/09/27 07:42:05;;;;;;;29.67;21.53;;;15.10;99.90;;;;;;5000601;28;20241;-78
2021/09/27 07:44:31;;;;;;;32.87;21.27;;;15.10;99.90;;;;;;5001770;28;20174;-80
2021/09/27 07:46:57;;;;;;;31.27;22.73;;;15.20;99.90;;;;;;4991211;28;20644;-79
2021/09/27 07:49:22;;;;;;;30.23;21.10;;;15.10;99.90;;;;;;4995466;28;20635;-81
2021/09/27 07:51:48;;;;;;;25.43;20.13;;;15.00;99.90;;;;;;4987779;28;20657;-80
2021/09/27 07:54:14;;;;;;;25.73;19.67;;;15.00;99.90;;;;;;4984467;28;20185;-79
2021/09/27 07:56:39;;;;;;;28.33;20.13;;;15.10;99.90;;;;;;4981857;28;20210;-80
2021/09/27 07:59:08;;;;;;;27.70;19.70;;;15.10;99.90;;;;;;4974595;28;20201;-80
2021/09/27 08:01:35;;;;;;;28.93;21.30;;;15.20;99.90;;;;;;4974882;28;20245;-80
2021/09/27 08:04:01;;;;;;;25.83;19.23;;;15.20;99.90;;;;;;4973451;28;20545;-80
2021/09/27 08:06:27;;;;;;;27.60;19.93;;;15.20;99.90;;;;;;4980853;28;20191;-80
2021/09/27 08:08:53;;;;;;;28.20;20.60;;;15.20;99.90;;;;;;4970262;28;20181;-80
2021/09/27 08:11:18;;;;;;;27.37;20.33;;;15.20;99.90;;;;;;4998324;28;20207;-80
2021/09/27 08:13:44;;;;;;;27.73;20.93;;;15.30;99.90;;;;;;4987230;28;20223;-80
2021/09/27 08:16:10;;;;;;;30.23;20.40;;;15.30;99.90;;;;;;5002080;28;20186;-80
2021/09/27 08:18:36;;;;;;;25.80;20.63;;;15.50;99.90;;;;;;5000535;28;20811;-80
2021/09/27 08:21:10;;;;;;;22.77;19.03;;;15.50;99.90;;;;;;4983923;28;20252;-80
2021/09/27 08:23:36;;;;;;;29.17;19.47;;;15.60;99.90;;;;;;4968165;28;20204;-80
2021/09/27 08:26:03;;;;;;;23.47;18.33;;;15.60;99.90;;;;;;5003780;28;20179;-80
2021/09/27 08:28:30;;;;;;;23.70;19.23;;;15.70;99.90;;;;;;5003037;28;20180;-80
2021/09/27 08:30:59;;;;;;;26.40;19.80;;;15.70;99.90;;;;;;4999728;28;20239;-80
2021/09/27 08:33:26;;;;;;;22.97;19.07;;;15.80;99.90;;;;;;4995111;28;20239;-80
2021/09/27 08:35:54;;;;;;;31.73;23.70;;;15.80;99.90;;;;;;4984357;28;20766;-80
2021/09/27 08:38:22;;;;;;;23.13;19.87;;;15.90;99.90;;;;;;4982900;28;20181;-80
2021/09/27 08:40:58;;;;;;;23.30;18.40;;;15.90;99.90;;;;;;4988622;28;20200;-80
2021/09/27 08:43:45;;;;;;;25.60;18.63;;;16.00;99.90;;;;;;5003496;28;20229;-80
2021/09/27 08:46:26;;;;;;;23.43;19.90;;;15.90;99.90;;;;;;4999733;28;20184;-81
2021/09/27 08:49:03;;;;;;;24.83;19.47;;;15.90;99.90;;;;;;4985511;28;20644;-80
2021/09/27 08:51:30;;;;;;;22.43;18.47;;;15.90;99.90;;;;;;4992329;28;20205;-82
2021/09/27 08:53:56;;;;;;;22.00;19.00;;;15.90;99.90;;;;;;4996735;28;20183;-81
2021/09/27 08:56:33;;;;;;;22.97;19.63;;;15.90;99.90;;;;;;4988405;28;20183;-83
2021/09/27 08:59:06;;;;;;;29.40;20.47;;;16.00;99.90;;;;;;4992192;28;20186;-81
2021/09/27 09:01:45;;;;;;;28.37;20.70;;;16.10;99.90;;;;;;4992750;28;20208;-81
2021/09/27 09:04:30;;;;;;;25.93;19.63;;;16.10;99.90;;;;;;4973977;28;20260;-80
2021/09/27 09:07:10;;;;;;;24.03;20.63;;;16.20;99.90;;;;;;4972820;28;20183;-82
2021/09/27 09:09:39;;;;;;;25.20;19.60;;;16.20;99.90;;;;;;4979296;28;20176;-83
2021/09/27 09:12:16;;;;;;;22.00;19.57;;;16.30;99.90;;;;;;4985189;28;20213;-81
2021/09/27 09:15:14;;;;;;;21.10;18.13;;;16.30;99.90;;;;;;4996405;28;20192;-81
2021/09/27 09:18:02;;;;;;;21.17;18.93;;;16.30;99.90;;;;;;4985551;28;20177;-82
2021/09/27 09:21:00;;;;;;;23.20;18.97;;;16.40;99.90;;;;;;4999937;28;20211;-82
2021/09/27 09:23:52;;;;;;;22.70;18.33;;;16.40;99.90;;;;;;4999988;28;20532;-81
2021/09/27 09:26:26;;;;;;;21.67;19.37;;;16.40;99.90;;;;;;4987540;28;20323;-81
2021/09/27 09:28:53;;;;;;;21.43;18.27;;;16.50;99.90;;;;;;5001226;28;20197;-81
2021/09/27 09:31:23;;;;;;;19.70;16.80;;;16.50;99.90;;;;;;4993752;28;20682;-81
2021/09/27 09:33:55;;;;;;;17.53;15.03;;;16.50;99.90;;;;;;4991708;28;20191;-82
2021/09/27 09:36:26;;;;;;;16.60;14.57;;;16.60;99.90;;;;;;4987188;28;20210;-82
2021/09/27 09:38:53;;;;;;;18.70;16.13;;;16.70;99.90;;;;;;4986348;28;20547;-82
2021/09/27 09:41:20;;;;;;;21.93;15.60;;;16.70;99.90;;;;;;4964702;28;20614;-82
2021/09/27 09:43:49;;;;;;;16.17;14.47;;;16.70;99.90;;;;;;4978389;28;20518;-82
2021/09/27 09:46:29;;;;;;;17.37;15.57;;;16.80;99.90;;;;;;4978161;28;20204;-81
2021/09/27 09:49:06;;;;;;;16.03;14.43;;;16.80;99.90;;;;;;4977299;28;20187;-82
2021/09/27 09:51:49;;;;;;;15.57;14.07;;;16.90;99.90;;;;;;4974965;28;20280;-82
2021/09/27 09:54:22;;;;;;;17.47;15.60;;;17.00;99.90;;;;;;4976443;28;20188;-83
2021/09/27 09:57:07;;;;;;;19.90;16.50;;;17.00;99.90;;;;;;4977906;28;20262;-82
2021/09/27 09:59:38;;;;;;;18.77;16.83;;;17.10;99.90;;;;;;4979016;28;20171;-82
2021/09/27 10:02:17;;;;;;;20.43;16.23;;;17.10;99.90;;;;;;4978788;28;20216;-82
2021/09/27 10:04:50;;;;;;;16.13;13.77;;;17.30;99.90;;;;;;4977521;28;20176;-82
2021/09/27 10:07:24;;;;;;;13.50;12.30;;;17.40;99.90;;;;;;4982150;28;20231;-82
2021/09/27 10:10:01;;;;;;;13.17;12.07;;;17.60;99.90;;;;;;4985179;28;20187;-82
2021/09/27 10:12:47;;;;;;;12.30;11.10;;;17.70;99.90;;;;;;4999328;28;20307;-82
2021/09/27 10:15:33;;;;;;;13.23;12.03;;;17.70;99.90;;;;;;4983710;28;20192;-83
2021/09/27 10:18:15;;;;;;;13.33;12.03;;;17.80;99.90;;;;;;4981932;28;20192;-81
2021/09/27 10:20:51;;;;;;;13.30;12.10;;;17.80;99.90;;;;;;4983766;28;20264;-80
2021/09/27 10:23:28;;;;;;;12.73;11.33;;;17.80;99.90;;;;;;4985445;28;20219;-80
2021/09/27 10:25:54;;;;;;;11.83;10.73;;;17.90;99.90;;;;;;4988155;28;20182;-81
2021/09/27 10:28:21;;;;;;;12.40;11.20;;;17.90;99.90;;;;;;4986234;28;20181;-81
2021/09/27 10:30:56;;;;;;;12.20;11.10;;;18.00;99.90;;;;;;4990315;28;20279;-80
2021/09/27 10:33:28;;;;;;;11.40;10.30;;;18.10;99.90;;;;;;4986261;28;20184;-80
2021/09/27 10:35:59;;;;;;;10.37;9.47;;;18.40;99.90;;;;;;4985845;28;20589;-80
2021/09/27 10:38:49;;;;;;;11.07;9.87;;;18.50;99.90;;;;;;4988603;28;20184;-80
2021/09/27 10:41:26;;;;;;;12.77;10.27;;;18.60;99.90;;;;;;4985672;28;20589;-80
2021/09/27 10:43:56;;;;;;;11.40;10.30;;;18.80;99.90;;;;;;4986910;28;20180;-80
2021/09/27 10:46:31;;;;;;;11.33;10.23;;;18.90;99.90;;;;;;4987751;28;20188;-80
2021/09/27 10:48:57;;;;;;;11.77;10.80;;;19.10;99.90;;;;;;4979604;28;20188;-80
2021/09/27 10:51:30;;;;;;;9.80;9.00;;;19.10;99.90;;;;;;4990753;28;20217;-80
2021/09/27 10:54:20;;;;;;;10.63;9.67;;;19.20;99.90;;;;;;4979474;28;20176;-79
2021/09/27 10:56:52;;;;;;;10.33;9.53;;;19.30;99.90;;;;;;4972499;28;20181;-80
2021/09/27 10:59:35;;;;;;;10.50;9.60;;;19.50;99.90;;;;;;4998914;28;20243;-79
2021/09/27 11:02:19;;;;;;;10.50;9.70;;;19.50;99.90;;;;;;4984964;28;20272;-79
2021/09/27 11:04:46;;;;;;;13.80;11.90;;;19.40;99.90;;;;;;4983243;28;20185;-79
2021/09/27 11:07:24;;;;;;;11.40;10.40;;;19.50;99.90;;;;;;4986609;28;20241;-79
2021/09/27 11:09:54;;;;;;;10.30;9.50;;;19.60;99.90;;;;;;5004528;28;20188;-80
2021/09/27 11:12:36;;;;;;;10.73;9.83;;;19.70;99.90;;;;;;4988032;28;20239;-79
2021/09/27 11:15:20;;;;;;;10.13;9.20;;;19.70;99.90;;;;;;4985453;28;20183;-80
2021/09/27 11:17:59;;;;;;;12.77;9.27;;;19.90;99.90;;;;;;4973168;28;20185;-79
2021/09/27 11:20:55;;;;;;;9.37;8.47;;;19.90;99.90;;;;;;4989124;28;20207;-79
2021/09/27 11:23:26;;;;;;;9.30;8.60;;;20.00;99.90;;;;;;5007738;28;20191;-79
2021/09/27 11:26:19;;;;;;;9.23;8.40;;;20.00;99.90;;;;;;4997262;28;20182;-79
2021/09/27 11:28:44;;;;;;;8.73;7.93;;;20.10;99.90;;;;;;5011291;28;20204;-79
2021/09/27 11:31:16;;;;;;;8.10;7.40;;;20.20;99.90;;;;;;5002183;28;20228;-79
2021/09/27 11:33:41;;;;;;;8.73;7.93;;;20.10;99.90;;;;;;4991171;28;20189;-79
2021/09/27 11:36:13;;;;;;;8.17;7.47;;;20.30;99.90;;;;;;4989166;28;20234;-79
2021/09/27 11:38:50;;;;;;;8.27;7.57;;;20.30;99.90;;;;;;4986562;28;20180;-78
2021/09/27 11:41:16;;;;;;;7.67;7.07;;;20.50;99.90;;;;;;5003805;28;20211;-78
2021/09/27 11:44:11;;;;;;;7.70;7.10;;;20.50;99.90;;;;;;5004306;28;20182;-78
2021/09/27 11:46:37;;;;;;;8.77;7.97;;;20.50;99.90;;;;;;4985687;28;20172;-78
2021/09/27 11:52:15;;;;;;;7.73;7.03;;;20.80;99.90;;;;;;5014617;28;20238;-79
2021/09/27 11:54:55;;;;;;;8.13;7.50;;;20.80;99.90;;;;;;4999801;28;20198;-79
2021/09/27 11:57:32;;;;;;;7.17;6.53;;;20.90;99.90;;;;;;5000181;28;20251;-79
2021/09/27 12:00:04;;;;;;;7.33;6.67;;;21.00;99.90;;;;;;5005208;28;20183;-80
2021/09/27 12:02:43;;;;;;;7.23;6.63;;;20.90;99.90;;;;;;4998033;28;20532;-78
2021/09/27 12:05:55;;;;;;;6.60;6.10;;;21.10;99.90;;;;;;5005849;28;20255;-79
2021/09/27 12:08:32;;;;;;;6.97;6.47;;;21.30;99.90;;;;;;4984186;28;20196;-78
2021/09/27 12:11:05;;;;;;;6.87;6.20;;;21.30;99.90;;;;;;5002795;28;20642;-79
2021/09/27 12:13:55;;;;;;;6.77;6.27;;;21.30;99.90;;;;;;4985639;28;20779;-79
2021/09/27 12:16:25;;;;;;;6.63;6.13;;;21.40;99.90;;;;;;4984813;28;20180;-78
2021/09/27 12:18:53;;;;;;;6.47;6.07;;;21.40;99.90;;;;;;5000410;28;20651;-79
2021/09/27 12:21:30;;;;;;;7.27;6.60;;;21.40;99.90;;;;;;4985560;28;20224;-78
2021/09/27 12:24:06;;;;;;;7.63;7.03;;;21.40;99.90;;;;;;4994110;28;20242;-80
2021/09/27 12:26:41;;;;;;;6.40;5.90;;;21.30;99.90;;;;;;4983804;28;20203;-79
2021/09/27 12:29:11;;;;;;;7.10;6.60;;;21.40;99.90;;;;;;4999479;28;20241;-78
2021/09/27 12:32:12;;;;;;;7.30;6.70;;;21.40;99.90;;;;;;4996539;28;20214;-79
2021/09/27 12:34:39;;;;;;;7.70;6.57;;;21.40;99.90;;;;;;4990216;28;20265;-78
2021/09/27 12:37:10;;;;;;;7.93;7.30;;;21.40;99.90;;;;;;4980522;28;20220;-80
2021/09/27 12:39:37;;;;;;;7.43;6.80;;;21.30;99.90;;;;;;4986024;28;20180;-79
2021/09/27 12:42:07;;;;;;;7.53;6.93;;;21.30;99.90;;;;;;4983463;28;20215;-79
2021/09/27 12:44:36;;;;;;;7.77;7.17;;;21.20;99.90;;;;;;4999689;28;20543;-79
2021/09/27 12:47:06;;;;;;;7.73;7.03;;;21.10;99.90;;;;;;5004699;28;20175;-78
2021/09/27 12:49:43;;;;;;;7.80;7.20;;;21.10;99.90;;;;;;4983772;28;20266;-79
2021/09/27 12:52:13;;;;;;;7.93;7.17;;;21.20;99.90;;;;;;4983741;28;20212;-79
2021/09/27 12:54:46;;;;;;;7.60;7.10;;;21.20;99.90;;;;;;5001785;28;20187;-79
2021/09/27 12:57:37;;;;;;;7.73;7.13;;;21.10;99.90;;;;;;4995266;28;20285;-79
2021/09/27 13:00:12;;;;;;;8.53;7.80;;;21.00;99.90;;;;;;4981371;28;20231;-78
2021/09/27 13:02:42;;;;;;;8.33;7.73;;;21.00;99.90;;;;;;4995481;28;20199;-78
2021/09/27 13:05:37;;;;;;;9.27;8.43;;;21.00;99.90;;;;;;5001969;28;20180;-79
2021/09/27 13:08:21;;;;;;;9.37;8.47;;;21.00;99.90;;;;;;4986347;28;20643;-79
2021/09/27 13:10:54;;;;;;;8.73;7.97;;;21.00;99.90;;;;;;5001318;28;20191;-79
2021/09/27 13:13:32;;;;;;;8.93;8.13;;;21.10;99.90;;;;;;5000394;28;20269;-78
2021/09/27 13:16:02;;;;;;;8.57;7.87;;;21.00;99.90;;;;;;4981177;28;20187;-79
2021/09/27 13:18:33;;;;;;;8.80;8.10;;;21.00;99.90;;;;;;4990795;28;20194;-78
2021/09/27 13:21:21;;;;;;;8.70;7.80;;;21.00;99.90;;;;;;5003572;28;20200;-79
2021/09/27 13:24:12;;;;;;;8.37;7.73;;;21.10;99.90;;;;;;5001839;28;20188;-78
2021/09/27 13:27:00;;;;;;;8.03;7.43;;;21.00;99.90;;;;;;4999912;28;20262;-78